sensor_id;sensor_type;location;lat;lon;timestamp;P1;durP1;ratioP1;P2;durP2;ratioP2
70455;SDS011;57916;51.996;5.180;2023-11-19T00:00:16;21.38;;;5.25;;
70455;SDS011;57916;51.996;5.180;2023-11-19T00:02:43;21.73;;;4.93;;
70455;SDS011;57916;51.996;5.180;2023-11-19T00:05:10;22.17;;;4.90;;
70455;SDS011;57916;51.996;5.180;2023-11-19T00:07:40;19.83;;;4.95;;
70455;SDS011;57916;51.996;5.180;2023-11-19T00:10:08;21.92;;;4.78;;
70455;SDS011;57916;51.996;5.180;2023-11-19T00:12:41;25.67;;;5.28;;
70455;SDS011;57916;51.996;5.180;2023-11-19T00:15:09;27.73;;;4.63;;
70455;SDS011;57916;51.996;5.180;2023-11-19T00:17:40;28.50;;;4.55;;
70455;SDS011;57916;51.996;5.180;2023-11-19T00:20:12;27.83;;;4.93;;
70455;SDS011;57916;51.996;5.180;2023-11-19T00:22:42;28.95;;;4.38;;
70455;SDS011;57916;51.996;5.180;2023-11-19T00:25:12;30.67;;;4.20;;
70455;SDS011;57916;51.996;5.180;2023-11-19T00:27:40;24.23;;;4.32;;
70455;SDS011;57916;51.996;5.180;2023-11-19T00:30:07;28.30;;;4.45;;
70455;SDS011;57916;51.996;5.180;2023-11-19T00:32:34;28.67;;;4.07;;
70455;SDS011;57916;51.996;5.180;2023-11-19T00:35:03;24.15;;;3.60;;
70455;SDS011;57916;51.996;5.180;2023-11-19T00:37:30;28.20;;;4.45;;
70455;SDS011;57916;51.996;5.180;2023-11-19T00:39:57;30.23;;;4.13;;
70455;SDS011;57916;51.996;5.180;2023-11-19T00:42:24;30.05;;;4.05;;
70455;SDS011;57916;51.996;5.180;2023-11-19T00:44:51;30.48;;;4.20;;
70455;SDS011;57916;51.996;5.180;2023-11-19T00:47:19;29.40;;;4.00;;
70455;SDS011;57916;51.996;5.180;2023-11-19T00:49:48;29.92;;;4.38;;
70455;SDS011;57916;51.996;5.180;2023-11-19T00:52:16;25.57;;;4.50;;
70455;SDS011;57916;51.996;5.180;2023-11-19T00:54:44;32.85;;;4.18;;
70455;SDS011;57916;51.996;5.180;2023-11-19T00:57:11;37.35;;;4.68;;
70455;SDS011;57916;51.996;5.180;2023-11-19T00:59:40;30.77;;;3.97;;
70455;SDS011;57916;51.996;5.180;2023-11-19T01:02:08;35.75;;;4.20;;
70455;SDS011;57916;51.996;5.180;2023-11-19T01:04:36;33.70;;;4.40;;
70455;SDS011;57916;51.996;5.180;2023-11-19T01:07:03;31.73;;;4.30;;
70455;SDS011;57916;51.996;5.180;2023-11-19T01:09:34;35.47;;;4.57;;
70455;SDS011;57916;51.996;5.180;2023-11-19T01:12:02;35.90;;;4.15;;
70455;SDS011;57916;51.996;5.180;2023-11-19T01:14:29;45.05;;;4.57;;
70455;SDS011;57916;51.996;5.180;2023-11-19T01:16:57;31.60;;;4.22;;
70455;SDS011;57916;51.996;5.180;2023-11-19T01:19:24;35.85;;;4.65;;
70455;SDS011;57916;51.996;5.180;2023-11-19T01:21:51;35.67;;;4.97;;
70455;SDS011;57916;51.996;5.180;2023-11-19T01:24:20;38.17;;;4.88;;
70455;SDS011;57916;51.996;5.180;2023-11-19T01:26:47;32.85;;;4.20;;
70455;SDS011;57916;51.996;5.180;2023-11-19T01:29:15;36.00;;;4.97;;
70455;SDS011;57916;51.996;5.180;2023-11-19T01:31:42;30.27;;;4.13;;
70455;SDS011;57916;51.996;5.180;2023-11-19T01:34:11;34.35;;;4.75;;
70455;SDS011;57916;51.996;5.180;2023-11-19T01:36:39;37.53;;;4.32;;
70455;SDS011;57916;51.996;5.180;2023-11-19T01:39:05;38.47;;;4.47;;
70455;SDS011;57916;51.996;5.180;2023-11-19T01:41:36;37.30;;;4.72;;
70455;SDS011;57916;51.996;5.180;2023-11-19T01:44:08;42.58;;;5.00;;
70455;SDS011;57916;51.996;5.180;2023-11-19T01:46:35;42.13;;;4.80;;
70455;SDS011;57916;51.996;5.180;2023-11-19T01:49:03;34.20;;;4.38;;
70455;SDS011;57916;51.996;5.180;2023-11-19T01:51:31;40.47;;;4.78;;
70455;SDS011;57916;51.996;5.180;2023-11-19T01:53:59;41.63;;;4.30;;
70455;SDS011;57916;51.996;5.180;2023-11-19T01:56:26;46.63;;;5.43;;
70455;SDS011;57916;51.996;5.180;2023-11-19T01:58:54;54.58;;;5.75;;
70455;SDS011;57916;51.996;5.180;2023-11-19T02:01:22;37.38;;;4.43;;
70455;SDS011;57916;51.996;5.180;2023-11-19T02:03:50;53.83;;;5.20;;
70455;SDS011;57916;51.996;5.180;2023-11-19T02:06:19;39.53;;;4.55;;
70455;SDS011;57916;51.996;5.180;2023-11-19T02:08:46;44.00;;;5.63;;
70455;SDS011;57916;51.996;5.180;2023-11-19T02:11:13;41.58;;;4.63;;
70455;SDS011;57916;51.996;5.180;2023-11-19T02:13:40;44.47;;;5.00;;
70455;SDS011;57916;51.996;5.180;2023-11-19T02:16:08;39.88;;;4.60;;
70455;SDS011;57916;51.996;5.180;2023-11-19T02:18:36;39.63;;;5.00;;
70455;SDS011;57916;51.996;5.180;2023-11-19T02:21:03;47.05;;;4.88;;
70455;SDS011;57916;51.996;5.180;2023-11-19T02:23:31;54.00;;;5.97;;
70455;SDS011;57916;51.996;5.180;2023-11-19T02:28:35;55.55;;;6.60;;
70455;SDS011;57916;51.996;5.180;2023-11-19T02:31:03;48.88;;;5.85;;
70455;SDS011;57916;51.996;5.180;2023-11-19T02:33:38;54.88;;;5.80;;
70455;SDS011;57916;51.996;5.180;2023-11-19T02:36:06;60.35;;;6.32;;
70455;SDS011;57916;51.996;5.180;2023-11-19T02:38:34;45.57;;;5.33;;
70455;SDS011;57916;51.996;5.180;2023-11-19T02:41:06;58.70;;;6.45;;
70455;SDS011;57916;51.996;5.180;2023-11-19T02:43:34;48.83;;;4.97;;
70455;SDS011;57916;51.996;5.180;2023-11-19T02:46:03;46.45;;;5.70;;
70455;SDS011;57916;51.996;5.180;2023-11-19T02:48:36;55.22;;;5.82;;
70455;SDS011;57916;51.996;5.180;2023-11-19T02:51:05;52.47;;;5.57;;
70455;SDS011;57916;51.996;5.180;2023-11-19T02:53:37;44.13;;;5.45;;
70455;SDS011;57916;51.996;5.180;2023-11-19T02:56:05;57.45;;;6.38;;
70455;SDS011;57916;51.996;5.180;2023-11-19T02:58:38;56.27;;;6.40;;
70455;SDS011;57916;51.996;5.180;2023-11-19T03:01:05;51.08;;;5.45;;
70455;SDS011;57916;51.996;5.180;2023-11-19T03:03:50;57.50;;;5.85;;
70455;SDS011;57916;51.996;5.180;2023-11-19T03:06:24;53.55;;;6.53;;
70455;SDS011;57916;51.996;5.180;2023-11-19T03:08:51;60.25;;;6.25;;
70455;SDS011;57916;51.996;5.180;2023-11-19T03:11:18;59.92;;;6.70;;
70455;SDS011;57916;51.996;5.180;2023-11-19T03:13:45;57.85;;;6.65;;
70455;SDS011;57916;51.996;5.180;2023-11-19T03:16:13;55.33;;;5.88;;
70455;SDS011;57916;51.996;5.180;2023-11-19T03:18:40;50.50;;;5.80;;
70455;SDS011;57916;51.996;5.180;2023-11-19T03:21:07;53.88;;;5.65;;
70455;SDS011;57916;51.996;5.180;2023-11-19T03:23:35;51.93;;;6.83;;
70455;SDS011;57916;51.996;5.180;2023-11-19T03:26:03;53.63;;;6.45;;
70455;SDS011;57916;51.996;5.180;2023-11-19T03:28:32;51.20;;;5.55;;
70455;SDS011;57916;51.996;5.180;2023-11-19T03:30:59;65.18;;;6.78;;
70455;SDS011;57916;51.996;5.180;2023-11-19T03:33:26;56.20;;;6.10;;
70455;SDS011;57916;51.996;5.180;2023-11-19T03:35:55;64.43;;;7.22;;
70455;SDS011;57916;51.996;5.180;2023-11-19T03:38:23;51.55;;;5.93;;
70455;SDS011;57916;51.996;5.180;2023-11-19T03:40:53;54.28;;;6.10;;
70455;SDS011;57916;51.996;5.180;2023-11-19T03:43:20;58.05;;;6.22;;
70455;SDS011;57916;51.996;5.180;2023-11-19T03:45:47;53.70;;;6.10;;
70455;SDS011;57916;51.996;5.180;2023-11-19T03:48:14;51.92;;;6.35;;
70455;SDS011;57916;51.996;5.180;2023-11-19T03:50:43;50.45;;;6.00;;
70455;SDS011;57916;51.996;5.180;2023-11-19T03:53:11;53.92;;;6.40;;
70455;SDS011;57916;51.996;5.180;2023-11-19T03:55:38;53.00;;;5.93;;
70455;SDS011;57916;51.996;5.180;2023-11-19T03:58:05;47.78;;;6.45;;
70455;SDS011;57916;51.996;5.180;2023-11-19T04:00:32;55.17;;;5.90;;
70455;SDS011;57916;51.996;5.180;2023-11-19T04:03:00;51.58;;;7.03;;
70455;SDS011;57916;51.996;5.180;2023-11-19T04:05:27;56.03;;;5.97;;
70455;SDS011;57916;51.996;5.180;2023-11-19T04:07:54;52.75;;;6.88;;
70455;SDS011;57916;51.996;5.180;2023-11-19T04:10:21;52.40;;;6.30;;
70455;SDS011;57916;51.996;5.180;2023-11-19T04:12:49;52.63;;;6.10;;
70455;SDS011;57916;51.996;5.180;2023-11-19T04:15:16;52.80;;;6.03;;
70455;SDS011;57916;51.996;5.180;2023-11-19T04:17:43;59.88;;;6.72;;
70455;SDS011;57916;51.996;5.180;2023-11-19T04:20:11;55.08;;;6.40;;
70455;SDS011;57916;51.996;5.180;2023-11-19T04:22:41;48.05;;;6.55;;
70455;SDS011;57916;51.996;5.180;2023-11-19T04:25:08;55.45;;;6.47;;
70455;SDS011;57916;51.996;5.180;2023-11-19T04:27:36;51.05;;;6.65;;
70455;SDS011;57916;51.996;5.180;2023-11-19T04:30:03;53.80;;;6.47;;
70455;SDS011;57916;51.996;5.180;2023-11-19T04:32:31;60.40;;;7.07;;
70455;SDS011;57916;51.996;5.180;2023-11-19T04:34:58;51.60;;;6.45;;
70455;SDS011;57916;51.996;5.180;2023-11-19T04:37:25;48.33;;;5.60;;
70455;SDS011;57916;51.996;5.180;2023-11-19T04:39:52;47.13;;;5.93;;
70455;SDS011;57916;51.996;5.180;2023-11-19T04:42:19;57.33;;;5.90;;
70455;SDS011;57916;51.996;5.180;2023-11-19T04:44:48;51.17;;;6.03;;
70455;SDS011;57916;51.996;5.180;2023-11-19T04:47:15;55.33;;;6.55;;
70455;SDS011;57916;51.996;5.180;2023-11-19T04:49:42;44.60;;;5.60;;
70455;SDS011;57916;51.996;5.180;2023-11-19T04:52:09;52.10;;;6.40;;
70455;SDS011;57916;51.996;5.180;2023-11-19T04:54:41;50.45;;;5.80;;
70455;SDS011;57916;51.996;5.180;2023-11-19T04:57:10;54.97;;;6.20;;
70455;SDS011;57916;51.996;5.180;2023-11-19T04:59:37;54.65;;;5.60;;
70455;SDS011;57916;51.996;5.180;2023-11-19T05:02:05;56.95;;;6.35;;
70455;SDS011;57916;51.996;5.180;2023-11-19T05:04:31;55.10;;;6.45;;
70455;SDS011;57916;51.996;5.180;2023-11-19T05:06:59;50.73;;;5.80;;
70455;SDS011;57916;51.996;5.180;2023-11-19T05:09:26;55.38;;;6.32;;
70455;SDS011;57916;51.996;5.180;2023-11-19T05:11:53;47.30;;;6.03;;
70455;SDS011;57916;51.996;5.180;2023-11-19T05:14:20;52.87;;;5.83;;
70455;SDS011;57916;51.996;5.180;2023-11-19T05:16:48;56.70;;;6.22;;
70455;SDS011;57916;51.996;5.180;2023-11-19T05:19:15;54.10;;;7.00;;
70455;SDS011;57916;51.996;5.180;2023-11-19T05:21:42;47.20;;;5.80;;
70455;SDS011;57916;51.996;5.180;2023-11-19T05:24:10;48.63;;;5.93;;
70455;SDS011;57916;51.996;5.180;2023-11-19T05:26:38;56.70;;;6.18;;
70455;SDS011;57916;51.996;5.180;2023-11-19T05:29:05;44.55;;;5.97;;
70455;SDS011;57916;51.996;5.180;2023-11-19T05:31:32;52.58;;;6.22;;
70455;SDS011;57916;51.996;5.180;2023-11-19T05:34:03;66.25;;;7.00;;
70455;SDS011;57916;51.996;5.180;2023-11-19T05:36:30;48.28;;;6.07;;
70455;SDS011;57916;51.996;5.180;2023-11-19T05:38:57;58.78;;;5.68;;
70455;SDS011;57916;51.996;5.180;2023-11-19T05:41:24;50.95;;;6.18;;
70455;SDS011;57916;51.996;5.180;2023-11-19T05:43:51;56.13;;;6.60;;
70455;SDS011;57916;51.996;5.180;2023-11-19T05:46:18;58.42;;;6.65;;
70455;SDS011;57916;51.996;5.180;2023-11-19T05:48:47;52.75;;;6.05;;
70455;SDS011;57916;51.996;5.180;2023-11-19T05:51:14;53.15;;;6.32;;
70455;SDS011;57916;51.996;5.180;2023-11-19T05:53:42;56.95;;;6.28;;
70455;SDS011;57916;51.996;5.180;2023-11-19T05:56:09;59.65;;;7.05;;
70455;SDS011;57916;51.996;5.180;2023-11-19T05:58:36;56.27;;;5.93;;
70455;SDS011;57916;51.996;5.180;2023-11-19T06:01:05;58.22;;;6.50;;
70455;SDS011;57916;51.996;5.180;2023-11-19T06:03:34;41.45;;;5.50;;
70455;SDS011;57916;51.996;5.180;2023-11-19T06:06:03;58.20;;;6.72;;
70455;SDS011;57916;51.996;5.180;2023-11-19T06:08:31;57.90;;;6.03;;
70455;SDS011;57916;51.996;5.180;2023-11-19T06:10:58;55.30;;;6.22;;
70455;SDS011;57916;51.996;5.180;2023-11-19T06:13:27;59.85;;;7.32;;
70455;SDS011;57916;51.996;5.180;2023-11-19T06:15:57;52.17;;;5.93;;
70455;SDS011;57916;51.996;5.180;2023-11-19T06:18:25;55.67;;;6.35;;
70455;SDS011;57916;51.996;5.180;2023-11-19T06:20:52;52.72;;;5.53;;
70455;SDS011;57916;51.996;5.180;2023-11-19T06:23:19;65.80;;;6.70;;
70455;SDS011;57916;51.996;5.180;2023-11-19T06:25:46;65.68;;;5.97;;
70455;SDS011;57916;51.996;5.180;2023-11-19T06:28:13;48.28;;;6.15;;
70455;SDS011;57916;51.996;5.180;2023-11-19T06:30:41;52.42;;;6.32;;
70455;SDS011;57916;51.996;5.180;2023-11-19T06:33:08;47.72;;;5.78;;
70455;SDS011;57916;51.996;5.180;2023-11-19T06:35:35;55.28;;;6.43;;
70455;SDS011;57916;51.996;5.180;2023-11-19T06:38:03;59.57;;;5.93;;
70455;SDS011;57916;51.996;5.180;2023-11-19T06:40:33;59.88;;;6.10;;
70455;SDS011;57916;51.996;5.180;2023-11-19T06:43:03;52.97;;;6.40;;
70455;SDS011;57916;51.996;5.180;2023-11-19T06:45:31;54.75;;;6.05;;
70455;SDS011;57916;51.996;5.180;2023-11-19T06:48:00;57.10;;;6.53;;
70455;SDS011;57916;51.996;5.180;2023-11-19T06:50:33;57.03;;;6.90;;
70455;SDS011;57916;51.996;5.180;2023-11-19T06:53:00;53.97;;;5.70;;
70455;SDS011;57916;51.996;5.180;2023-11-19T06:55:27;64.45;;;7.05;;
70455;SDS011;57916;51.996;5.180;2023-11-19T06:57:54;49.53;;;6.40;;
70455;SDS011;57916;51.996;5.180;2023-11-19T07:00:21;55.40;;;6.70;;
70455;SDS011;57916;51.996;5.180;2023-11-19T07:02:48;54.17;;;6.07;;
70455;SDS011;57916;51.996;5.180;2023-11-19T07:05:16;56.22;;;6.13;;
70455;SDS011;57916;51.996;5.180;2023-11-19T07:07:43;60.38;;;7.40;;
70455;SDS011;57916;51.996;5.180;2023-11-19T07:10:13;57.42;;;6.28;;
70455;SDS011;57916;51.996;5.180;2023-11-19T07:12:43;54.00;;;5.77;;
70455;SDS011;57916;51.996;5.180;2023-11-19T07:15:11;48.38;;;5.43;;
70455;SDS011;57916;51.996;5.180;2023-11-19T07:17:39;60.37;;;6.57;;
70455;SDS011;57916;51.996;5.180;2023-11-19T07:20:07;51.05;;;6.25;;
70455;SDS011;57916;51.996;5.180;2023-11-19T07:22:34;59.08;;;6.68;;
70455;SDS011;57916;51.996;5.180;2023-11-19T07:25:01;57.30;;;6.10;;
70455;SDS011;57916;51.996;5.180;2023-11-19T07:27:28;58.10;;;6.10;;
70455;SDS011;57916;51.996;5.180;2023-11-19T07:29:55;50.38;;;5.97;;
70455;SDS011;57916;51.996;5.180;2023-11-19T07:32:22;54.13;;;6.25;;
70455;SDS011;57916;51.996;5.180;2023-11-19T07:34:49;50.80;;;5.80;;
70455;SDS011;57916;51.996;5.180;2023-11-19T07:37:16;49.35;;;5.85;;
70455;SDS011;57916;51.996;5.180;2023-11-19T07:39:43;64.10;;;6.35;;
70455;SDS011;57916;51.996;5.180;2023-11-19T07:42:13;52.33;;;5.97;;
70455;SDS011;57916;51.996;5.180;2023-11-19T07:44:40;47.65;;;5.63;;
70455;SDS011;57916;51.996;5.180;2023-11-19T07:47:08;58.03;;;7.00;;
70455;SDS011;57916;51.996;5.180;2023-11-19T07:49:35;57.78;;;6.57;;
70455;SDS011;57916;51.996;5.180;2023-11-19T07:52:02;55.05;;;5.97;;
70455;SDS011;57916;51.996;5.180;2023-11-19T07:54:29;51.50;;;6.00;;
70455;SDS011;57916;51.996;5.180;2023-11-19T07:56:56;46.60;;;5.90;;
70455;SDS011;57916;51.996;5.180;2023-11-19T07:59:23;54.33;;;7.10;;
70455;SDS011;57916;51.996;5.180;2023-11-19T08:01:50;42.30;;;5.93;;
70455;SDS011;57916;51.996;5.180;2023-11-19T08:04:17;47.03;;;5.68;;
70455;SDS011;57916;51.996;5.180;2023-11-19T08:06:44;50.30;;;5.78;;
70455;SDS011;57916;51.996;5.180;2023-11-19T08:09:12;50.80;;;5.80;;
70455;SDS011;57916;51.996;5.180;2023-11-19T08:11:41;50.55;;;5.75;;
70455;SDS011;57916;51.996;5.180;2023-11-19T08:14:08;53.30;;;5.85;;
70455;SDS011;57916;51.996;5.180;2023-11-19T08:16:35;52.55;;;5.68;;
70455;SDS011;57916;51.996;5.180;2023-11-19T08:19:04;44.08;;;5.47;;
70455;SDS011;57916;51.996;5.180;2023-11-19T08:21:31;50.83;;;5.63;;
70455;SDS011;57916;51.996;5.180;2023-11-19T08:23:58;46.63;;;5.82;;
70455;SDS011;57916;51.996;5.180;2023-11-19T08:26:25;45.77;;;6.13;;
70455;SDS011;57916;51.996;5.180;2023-11-19T08:28:52;46.97;;;5.70;;
70455;SDS011;57916;51.996;5.180;2023-11-19T08:31:19;45.22;;;5.57;;
70455;SDS011;57916;51.996;5.180;2023-11-19T08:33:46;48.83;;;5.67;;
70455;SDS011;57916;51.996;5.180;2023-11-19T08:36:16;49.33;;;5.82;;
70455;SDS011;57916;51.996;5.180;2023-11-19T08:38:43;48.80;;;5.75;;
70455;SDS011;57916;51.996;5.180;2023-11-19T08:41:11;44.65;;;4.85;;
70455;SDS011;57916;51.996;5.180;2023-11-19T08:43:38;48.40;;;5.50;;
70455;SDS011;57916;51.996;5.180;2023-11-19T08:46:09;46.72;;;5.75;;
70455;SDS011;57916;51.996;5.180;2023-11-19T08:48:37;46.58;;;4.95;;
70455;SDS011;57916;51.996;5.180;2023-11-19T08:51:05;41.88;;;5.13;;
70455;SDS011;57916;51.996;5.180;2023-11-19T08:53:33;49.38;;;5.15;;
70455;SDS011;57916;51.996;5.180;2023-11-19T08:56:01;42.53;;;4.73;;
70455;SDS011;57916;51.996;5.180;2023-11-19T08:58:30;36.65;;;5.30;;
70455;SDS011;57916;51.996;5.180;2023-11-19T09:00:58;42.97;;;5.38;;
70455;SDS011;57916;51.996;5.180;2023-11-19T09:03:25;51.92;;;6.07;;
70455;SDS011;57916;51.996;5.180;2023-11-19T09:05:53;39.50;;;5.82;;
70455;SDS011;57916;51.996;5.180;2023-11-19T09:08:20;39.45;;;5.32;;
70455;SDS011;57916;51.996;5.180;2023-11-19T09:10:48;40.08;;;5.65;;
70455;SDS011;57916;51.996;5.180;2023-11-19T09:13:15;47.72;;;5.88;;
70455;SDS011;57916;51.996;5.180;2023-11-19T09:15:42;43.70;;;5.82;;
70455;SDS011;57916;51.996;5.180;2023-11-19T09:18:09;46.42;;;5.38;;
70455;SDS011;57916;51.996;5.180;2023-11-19T09:20:37;37.92;;;4.97;;
70455;SDS011;57916;51.996;5.180;2023-11-19T09:23:06;40.22;;;5.50;;
70455;SDS011;57916;51.996;5.180;2023-11-19T09:25:34;37.63;;;4.95;;
70455;SDS011;57916;51.996;5.180;2023-11-19T09:28:05;48.17;;;6.05;;
70455;SDS011;57916;51.996;5.180;2023-11-19T09:30:32;37.90;;;5.13;;
70455;SDS011;57916;51.996;5.180;2023-11-19T09:33:00;40.95;;;5.28;;
70455;SDS011;57916;51.996;5.180;2023-11-19T09:35:28;40.60;;;5.25;;
70455;SDS011;57916;51.996;5.180;2023-11-19T09:37:55;39.08;;;5.00;;
70455;SDS011;57916;51.996;5.180;2023-11-19T09:40:21;39.25;;;5.38;;
70455;SDS011;57916;51.996;5.180;2023-11-19T09:42:49;45.65;;;5.55;;
70455;SDS011;57916;51.996;5.180;2023-11-19T09:45:17;45.13;;;5.40;;
70455;SDS011;57916;51.996;5.180;2023-11-19T09:47:47;46.33;;;5.78;;
70455;SDS011;57916;51.996;5.180;2023-11-19T09:50:17;46.20;;;6.05;;
70455;SDS011;57916;51.996;5.180;2023-11-19T09:52:46;52.70;;;5.35;;
70455;SDS011;57916;51.996;5.180;2023-11-19T09:55:13;38.88;;;4.82;;
70455;SDS011;57916;51.996;5.180;2023-11-19T09:57:41;41.90;;;5.10;;
70455;SDS011;57916;51.996;5.180;2023-11-19T10:00:10;38.95;;;4.63;;
70455;SDS011;57916;51.996;5.180;2023-11-19T10:02:41;52.05;;;6.00;;
70455;SDS011;57916;51.996;5.180;2023-11-19T10:05:13;43.78;;;5.63;;
70455;SDS011;57916;51.996;5.180;2023-11-19T10:07:42;45.58;;;5.30;;
70455;SDS011;57916;51.996;5.180;2023-11-19T10:10:09;41.25;;;4.82;;
70455;SDS011;57916;51.996;5.180;2023-11-19T10:12:40;42.33;;;4.93;;
70455;SDS011;57916;51.996;5.180;2023-11-19T10:15:24;50.10;;;5.43;;
70455;SDS011;57916;51.996;5.180;2023-11-19T10:17:56;40.20;;;5.68;;
70455;SDS011;57916;51.996;5.180;2023-11-19T10:20:24;34.53;;;5.23;;
70455;SDS011;57916;51.996;5.180;2023-11-19T10:22:55;38.53;;;4.90;;
70455;SDS011;57916;51.996;5.180;2023-11-19T10:25:23;44.70;;;5.38;;
70455;SDS011;57916;51.996;5.180;2023-11-19T10:27:54;46.25;;;5.93;;
70455;SDS011;57916;51.996;5.180;2023-11-19T10:30:24;36.30;;;5.45;;
70455;SDS011;57916;51.996;5.180;2023-11-19T10:33:06;39.63;;;5.68;;
70455;SDS011;57916;51.996;5.180;2023-11-19T10:35:37;50.67;;;5.90;;
70455;SDS011;57916;51.996;5.180;2023-11-19T10:38:21;37.58;;;4.90;;
70455;SDS011;57916;51.996;5.180;2023-11-19T10:40:49;44.95;;;5.32;;
70455;SDS011;57916;51.996;5.180;2023-11-19T10:43:17;37.85;;;5.57;;
70455;SDS011;57916;51.996;5.180;2023-11-19T10:45:50;41.88;;;6.13;;
70455;SDS011;57916;51.996;5.180;2023-11-19T10:48:18;40.03;;;5.88;;
70455;SDS011;57916;51.996;5.180;2023-11-19T10:50:46;37.20;;;5.70;;
70455;SDS011;57916;51.996;5.180;2023-11-19T10:53:19;40.25;;;5.05;;
70455;SDS011;57916;51.996;5.180;2023-11-19T10:55:47;43.78;;;5.03;;
70455;SDS011;57916;51.996;5.180;2023-11-19T10:58:15;37.40;;;5.15;;
70455;SDS011;57916;51.996;5.180;2023-11-19T11:00:47;40.17;;;5.10;;
70455;SDS011;57916;51.996;5.180;2023-11-19T11:03:19;38.45;;;4.70;;
70455;SDS011;57916;51.996;5.180;2023-11-19T11:05:48;51.28;;;6.25;;
70455;SDS011;57916;51.996;5.180;2023-11-19T11:08:16;41.50;;;5.10;;
70455;SDS011;57916;51.996;5.180;2023-11-19T11:10:50;43.22;;;6.20;;
70455;SDS011;57916;51.996;5.180;2023-11-19T11:13:23;44.17;;;5.57;;
70455;SDS011;57916;51.996;5.180;2023-11-19T11:15:50;44.22;;;5.63;;
70455;SDS011;57916;51.996;5.180;2023-11-19T11:18:18;45.42;;;5.70;;
70455;SDS011;57916;51.996;5.180;2023-11-19T11:20:45;31.38;;;4.53;;
70455;SDS011;57916;51.996;5.180;2023-11-19T11:31:45;37.85;;;5.18;;
70455;SDS011;57916;51.996;5.180;2023-11-19T11:34:27;36.58;;;4.43;;
70455;SDS011;57916;51.996;5.180;2023-11-19T11:37:25;43.67;;;4.85;;
70455;SDS011;57916;51.996;5.180;2023-11-19T11:39:52;42.08;;;5.30;;
70455;SDS011;57916;51.996;5.180;2023-11-19T11:55:33;31.10;;;4.22;;
70455;SDS011;57916;51.996;5.180;2023-11-19T11:58:05;27.92;;;3.50;;
70455;SDS011;57916;51.996;5.180;2023-11-19T12:00:33;34.03;;;4.38;;
70455;SDS011;57916;51.996;5.180;2023-11-19T12:03:04;25.88;;;3.40;;
70455;SDS011;57916;51.996;5.180;2023-11-19T12:05:33;26.50;;;3.95;;
70455;SDS011;57916;51.996;5.180;2023-11-19T12:08:15;29.65;;;3.83;;
70455;SDS011;57916;51.996;5.180;2023-11-19T12:10:55;33.88;;;4.22;;
70455;SDS011;57916;51.996;5.180;2023-11-19T12:13:42;31.58;;;4.10;;
70455;SDS011;57916;51.996;5.180;2023-11-19T12:16:29;32.67;;;4.35;;
70455;SDS011;57916;51.996;5.180;2023-11-19T12:18:57;35.92;;;5.28;;
70455;SDS011;57916;51.996;5.180;2023-11-19T12:21:31;37.53;;;4.25;;
70455;SDS011;57916;51.996;5.180;2023-11-19T12:23:59;36.25;;;4.13;;
70455;SDS011;57916;51.996;5.180;2023-11-19T12:26:31;34.70;;;4.63;;
70455;SDS011;57916;51.996;5.180;2023-11-19T12:29:05;37.50;;;4.47;;
70455;SDS011;57916;51.996;5.180;2023-11-19T12:31:35;31.42;;;4.97;;
70455;SDS011;57916;51.996;5.180;2023-11-19T12:34:05;38.00;;;4.95;;
70455;SDS011;57916;51.996;5.180;2023-11-19T12:36:33;35.83;;;4.10;;
70455;SDS011;57916;51.996;5.180;2023-11-19T12:39:01;33.53;;;4.47;;
70455;SDS011;57916;51.996;5.180;2023-11-19T12:41:28;34.38;;;4.50;;
70455;SDS011;57916;51.996;5.180;2023-11-19T12:44:08;34.00;;;5.55;;
70455;SDS011;57916;51.996;5.180;2023-11-19T12:46:37;35.75;;;5.03;;
70455;SDS011;57916;51.996;5.180;2023-11-19T12:49:04;33.63;;;4.57;;
70455;SDS011;57916;51.996;5.180;2023-11-19T12:51:32;35.63;;;5.07;;
70455;SDS011;57916;51.996;5.180;2023-11-19T12:54:00;30.40;;;4.85;;
70455;SDS011;57916;51.996;5.180;2023-11-19T12:56:27;35.15;;;5.00;;
70455;SDS011;57916;51.996;5.180;2023-11-19T12:58:54;34.63;;;4.82;;
70455;SDS011;57916;51.996;5.180;2023-11-19T13:01:21;35.17;;;4.35;;
70455;SDS011;57916;51.996;5.180;2023-11-19T13:03:48;31.77;;;4.60;;
70455;SDS011;57916;51.996;5.180;2023-11-19T13:06:16;43.40;;;5.07;;
70455;SDS011;57916;51.996;5.180;2023-11-19T13:08:50;30.25;;;4.32;;
70455;SDS011;57916;51.996;5.180;2023-11-19T13:11:31;37.50;;;5.00;;
70455;SDS011;57916;51.996;5.180;2023-11-19T13:14:05;36.95;;;4.43;;
70455;SDS011;57916;51.996;5.180;2023-11-19T13:16:36;45.63;;;5.68;;
70455;SDS011;57916;51.996;5.180;2023-11-19T13:19:04;36.97;;;5.03;;
70455;SDS011;57916;51.996;5.180;2023-11-19T13:21:31;45.10;;;4.90;;
70455;SDS011;57916;51.996;5.180;2023-11-19T13:23:59;41.25;;;4.82;;
70455;SDS011;57916;51.996;5.180;2023-11-19T13:26:26;51.45;;;5.53;;
70455;SDS011;57916;51.996;5.180;2023-11-19T13:28:53;48.75;;;4.90;;
70455;SDS011;57916;51.996;5.180;2023-11-19T13:31:20;28.50;;;3.75;;
70455;SDS011;57916;51.996;5.180;2023-11-19T13:33:47;31.50;;;4.05;;
70455;SDS011;57916;51.996;5.180;2023-11-19T13:36:15;26.70;;;3.50;;
70455;SDS011;57916;51.996;5.180;2023-11-19T13:38:43;39.97;;;4.10;;
70455;SDS011;57916;51.996;5.180;2023-11-19T13:41:13;31.90;;;4.32;;
70455;SDS011;57916;51.996;5.180;2023-11-19T13:43:41;24.00;;;3.42;;
70455;SDS011;57916;51.996;5.180;2023-11-19T13:46:08;32.80;;;4.03;;
70455;SDS011;57916;51.996;5.180;2023-11-19T13:48:38;28.45;;;3.88;;
70455;SDS011;57916;51.996;5.180;2023-11-19T13:51:05;32.63;;;3.83;;
70455;SDS011;57916;51.996;5.180;2023-11-19T13:53:33;35.70;;;4.18;;
70455;SDS011;57916;51.996;5.180;2023-11-19T13:56:03;43.95;;;4.47;;
70455;SDS011;57916;51.996;5.180;2023-11-19T13:58:30;32.85;;;3.88;;
70455;SDS011;57916;51.996;5.180;2023-11-19T14:00:57;33.57;;;4.03;;
70455;SDS011;57916;51.996;5.180;2023-11-19T14:03:24;31.37;;;4.37;;
70455;SDS011;57916;51.996;5.180;2023-11-19T14:05:51;32.95;;;4.50;;
70455;SDS011;57916;51.996;5.180;2023-11-19T14:08:21;32.50;;;4.88;;
70455;SDS011;57916;51.996;5.180;2023-11-19T14:10:51;27.93;;;4.03;;
70455;SDS011;57916;51.996;5.180;2023-11-19T14:13:22;32.90;;;4.20;;
70455;SDS011;57916;51.996;5.180;2023-11-19T14:15:49;33.85;;;4.18;;
70455;SDS011;57916;51.996;5.180;2023-11-19T14:18:17;32.55;;;4.50;;
70455;SDS011;57916;51.996;5.180;2023-11-19T14:20:44;32.25;;;4.43;;
70455;SDS011;57916;51.996;5.180;2023-11-19T14:23:13;40.35;;;4.68;;
70455;SDS011;57916;51.996;5.180;2023-11-19T14:25:40;38.60;;;4.50;;
70455;SDS011;57916;51.996;5.180;2023-11-19T14:28:07;42.03;;;4.70;;
70455;SDS011;57916;51.996;5.180;2023-11-19T14:30:34;34.90;;;4.32;;
70455;SDS011;57916;51.996;5.180;2023-11-19T14:33:01;38.05;;;4.25;;
70455;SDS011;57916;51.996;5.180;2023-11-19T14:35:30;44.75;;;5.38;;
70455;SDS011;57916;51.996;5.180;2023-11-19T14:37:57;39.95;;;4.80;;
70455;SDS011;57916;51.996;5.180;2023-11-19T14:40:24;36.40;;;4.65;;
70455;SDS011;57916;51.996;5.180;2023-11-19T14:42:54;38.33;;;4.78;;
70455;SDS011;57916;51.996;5.180;2023-11-19T14:45:21;30.83;;;4.77;;
70455;SDS011;57916;51.996;5.180;2023-11-19T14:47:48;33.70;;;4.05;;
70455;SDS011;57916;51.996;5.180;2023-11-19T14:50:16;34.47;;;4.50;;
70455;SDS011;57916;51.996;5.180;2023-11-19T14:52:43;31.20;;;4.45;;
70455;SDS011;57916;51.996;5.180;2023-11-19T14:55:10;26.13;;;3.72;;
70455;SDS011;57916;51.996;5.180;2023-11-19T14:57:38;27.60;;;4.00;;
70455;SDS011;57916;51.996;5.180;2023-11-19T15:00:06;39.65;;;4.40;;
70455;SDS011;57916;51.996;5.180;2023-11-19T15:02:42;30.98;;;4.50;;
70455;SDS011;57916;51.996;5.180;2023-11-19T15:05:09;23.48;;;4.00;;